OICI  Ilam Airport

Add Bookmark

Ilam, Iran

Status IATA
Operational IIL
Latitude Longitude
33° 35' 11" N 46° 24' 17" E
33.586601 46.404800
Local (DST + 5) UTC (GMT + 4)
Mar 1, 2015 02:29 Feb 28, 2015 22:59
Sunrise-Sunset Local UTC
Begin Civil Twilight 06:26 02:56
Sunrise 06:51 03:21
Sunset 06:21 14:51
End Civil Twilight 06:46 15:16

Current Weather

METAR Observed VFR
OICI 282200Z 00000KT CAVOK 06/M01 Q1017 A3004 Sat, Feb 28, 2015 @ 22:00 UTC
(59 Minutes ago)
Visual Flight Rules
Wind Visibility Clouds Conditions
Calm 10 km or more
  • Clear skies
  • No significant weather
Temperatures Readings Precipitation
Current Temp 6°C (43°F)
Dewpoint -1°C (30°F)
Humidity 61%
Altimeter 30.03"Hg
Sea Level Pressure 1017mb
Field Elevation 4406.17'
None Recorded

Additional weather within a 185.2km radius of OICI

Map ICAO Location
OICC 109.3km N (039°)
OICK 174.8km E (095°)

24 Hour Weather History

Loading
-

24 Hour Weather Graphs

Loading
-

CheckWX.com is intended as a tool to help pilots better visualize weather data. It is not intended as a substitute for an official weather briefing obtained from a Flight Service Station. CheckWX.com does not meet the FAA requirements for an official pre-flight weather briefing. Therefore, it's important that pilots still call and obtain an official FSS pre-flight weather briefing.